createdAt,value
2022-07-29T00:01:43.026Z,18.03
2022-07-29T00:04:11.084Z,17.85
2022-07-29T00:06:38.784Z,17.00
2022-07-29T00:09:06.581Z,17.79
2022-07-29T00:11:34.243Z,17.86
2022-07-29T00:14:01.797Z,17.76
2022-07-29T00:16:29.593Z,17.65
2022-07-29T00:18:59.537Z,17.56
2022-07-29T00:21:29.739Z,17.43
2022-07-29T00:23:57.739Z,17.47
2022-07-29T00:26:25.440Z,17.23
2022-07-29T00:29:02.077Z,17.31
2022-07-29T00:31:40.542Z,17.22
2022-07-29T00:34:28.337Z,17.16
2022-07-29T00:36:56.466Z,17.04
2022-07-29T00:39:24.509Z,17.07
2022-07-29T00:41:51.973Z,16.89
2022-07-29T00:44:21.113Z,16.28
2022-07-29T00:46:48.906Z,16.35
2022-07-29T00:49:16.495Z,16.41
2022-07-29T00:51:44.448Z,16.69
2022-07-29T00:54:12.364Z,15.66
2022-07-29T00:56:40.215Z,16.72
2022-07-29T00:59:07.910Z,16.70
2022-07-29T01:01:35.471Z,16.50
2022-07-29T01:04:03.011Z,16.51
2022-07-29T01:06:31.311Z,16.57
2022-07-29T01:08:59.872Z,16.27
2022-07-29T01:11:27.337Z,16.32
2022-07-29T01:13:55.401Z,16.13
2022-07-29T01:16:31.998Z,15.62
2022-07-29T01:19:14.345Z,16.26
2022-07-29T01:22:00.570Z,15.67
2022-07-29T01:24:33.963Z,16.38
2022-07-29T01:27:33.942Z,16.31
2022-07-29T01:30:05.256Z,15.92
2022-07-29T01:32:36.694Z,16.21
2022-07-29T01:35:28.391Z,16.23
2022-07-29T01:38:06.741Z,16.26
2022-07-29T01:40:55.465Z,16.24
2022-07-29T01:43:41.787Z,15.90
2022-07-29T01:46:16.441Z,16.17
2022-07-29T01:48:48.723Z,16.25
2022-07-29T01:51:25.787Z,15.63
2022-07-29T01:54:16.361Z,16.03
2022-07-29T01:56:46.543Z,16.11
2022-07-29T01:59:14.286Z,16.26
2022-07-29T02:01:44.080Z,16.30
2022-07-29T02:04:28.859Z,16.27
2022-07-29T02:07:01.919Z,17.16
2022-07-29T02:09:31.667Z,17.59
2022-07-29T02:12:01.072Z,19.06
2022-07-29T02:14:32.964Z,20.21
2022-07-29T02:17:01.970Z,20.62
2022-07-29T02:19:32.449Z,21.36
2022-07-29T02:22:01.976Z,21.95
2022-07-29T02:24:32.084Z,22.96
2022-07-29T02:27:00.893Z,23.83
2022-07-29T02:29:32.818Z,24.59
2022-07-29T02:32:02.339Z,25.44
2022-07-29T02:34:31.361Z,25.89
2022-07-29T02:37:00.974Z,24.73
2022-07-29T02:39:30.659Z,24.19
2022-07-29T02:42:09.778Z,23.13
2022-07-29T02:44:37.638Z,21.85
2022-07-29T02:47:31.995Z,21.23
2022-07-29T02:50:09.954Z,21.04
2022-07-29T02:52:46.613Z,20.52
2022-07-29T02:55:42.109Z,20.05
2022-07-29T02:58:54.689Z,19.67
2022-07-29T03:01:25.000Z,19.62
2022-07-29T03:03:55.167Z,19.00
2022-07-29T03:06:28.115Z,21.08
2022-07-29T03:09:13.249Z,23.97
2022-07-29T03:11:49.627Z,26.34
2022-07-29T03:14:20.977Z,27.75
2022-07-29T03:16:50.685Z,29.84
2022-07-29T03:19:19.395Z,31.21
2022-07-29T03:21:47.279Z,31.94
2022-07-29T03:24:32.589Z,33.17
2022-07-29T03:27:01.248Z,33.28
2022-07-29T03:29:33.567Z,34.37
2022-07-29T03:32:07.222Z,35.52
2022-07-29T03:34:36.415Z,36.35
2022-07-29T03:37:03.839Z,37.11
2022-07-29T03:39:36.886Z,37.86
2022-07-29T03:42:07.887Z,37.83
2022-07-29T03:44:36.819Z,39.02
2022-07-29T03:47:07.709Z,39.63
2022-07-29T03:49:38.100Z,39.95
2022-07-29T03:52:07.065Z,40.60
2022-07-29T03:54:35.286Z,41.44
2022-07-29T03:57:07.118Z,42.03
2022-07-29T03:59:35.444Z,42.31
2022-07-29T04:02:08.039Z,42.40
2022-07-29T04:04:37.274Z,42.55
2022-07-29T04:07:05.490Z,42.92
2022-07-29T04:09:33.613Z,43.09
2022-07-29T04:12:04.088Z,43.39
2022-07-29T04:14:33.501Z,43.67
2022-07-29T04:17:02.907Z,43.43
2022-07-29T04:19:30.230Z,44.03
2022-07-29T04:21:58.672Z,44.20
2022-07-29T04:24:26.696Z,44.56
2022-07-29T04:26:54.267Z,44.62
2022-07-29T04:29:22.013Z,44.93
2022-07-29T04:31:49.592Z,44.99
2022-07-29T04:34:17.498Z,44.78
2022-07-29T04:36:45.571Z,45.39
2022-07-29T04:39:13.019Z,45.71
2022-07-29T04:41:40.590Z,45.76
2022-07-29T04:44:10.712Z,46.03
2022-07-29T04:46:38.538Z,46.12
2022-07-29T04:49:06.273Z,45.94
2022-07-29T04:51:34.114Z,45.79
2022-07-29T04:54:02.409Z,46.45
2022-07-29T04:56:29.990Z,46.60
2022-07-29T04:58:57.522Z,46.84
2022-07-29T05:01:25.289Z,47.03
2022-07-29T05:03:56.999Z,47.60
2022-07-29T05:06:27.533Z,46.98
2022-07-29T05:08:55.096Z,46.60
2022-07-29T05:11:24.929Z,47.32
2022-07-29T05:13:54.852Z,47.92
2022-07-29T05:16:22.753Z,48.16
2022-07-29T05:18:50.341Z,47.76
2022-07-29T05:21:17.837Z,48.20
2022-07-29T05:23:45.110Z,47.75
2022-07-29T05:26:13.210Z,47.04
2022-07-29T05:28:40.790Z,46.95
2022-07-29T05:31:08.154Z,45.82
2022-07-29T05:33:37.101Z,46.29
2022-07-29T05:36:08.523Z,45.24
2022-07-29T05:38:37.160Z,44.54
2022-07-29T05:41:06.287Z,44.91
2022-07-29T05:43:34.312Z,45.49
2022-07-29T05:46:02.087Z,46.22
2022-07-29T05:48:29.561Z,47.19
2022-07-29T05:50:57.459Z,48.05
2022-07-29T05:53:24.831Z,48.25
2022-07-29T05:55:53.458Z,48.21
2022-07-29T05:58:21.149Z,49.17
2022-07-29T06:00:48.579Z,48.17
2022-07-29T06:03:15.853Z,45.99
2022-07-29T06:05:43.401Z,45.24
2022-07-29T06:08:10.938Z,45.86
2022-07-29T06:10:39.333Z,46.55
2022-07-29T06:13:06.716Z,47.38
2022-07-29T06:15:34.525Z,46.91
2022-07-29T06:18:02.559Z,47.77
2022-07-29T06:20:32.394Z,48.58
2022-07-29T06:23:01.132Z,49.17
2022-07-29T06:25:32.086Z,49.31
2022-07-29T06:27:59.943Z,49.31
2022-07-29T06:30:27.887Z,47.10
2022-07-29T06:32:56.406Z,46.69
2022-07-29T06:35:37.689Z,47.78
2022-07-29T06:38:12.012Z,48.55
2022-07-29T06:41:09.182Z,49.28
2022-07-29T06:43:52.305Z,49.32
2022-07-29T06:46:23.833Z,47.94
2022-07-29T06:48:53.077Z,48.71
2022-07-29T06:51:23.038Z,48.34
2022-07-29T06:54:01.728Z,48.79
2022-07-29T06:56:42.917Z,48.58
2022-07-29T06:59:12.525Z,48.35
2022-07-29T07:01:42.134Z,48.71
2022-07-29T07:04:10.451Z,49.46
2022-07-29T07:06:38.969Z,49.34
2022-07-29T07:09:07.049Z,50.01
2022-07-29T07:11:35.020Z,49.97
2022-07-29T07:14:04.120Z,50.98
2022-07-29T07:16:33.301Z,51.61
2022-07-29T07:19:01.433Z,51.70
2022-07-29T07:21:30.476Z,52.19
2022-07-29T07:24:00.436Z,51.90
2022-07-29T07:26:28.963Z,51.98
2022-07-29T07:28:57.278Z,52.33
2022-07-29T07:31:25.343Z,51.83
2022-07-29T07:33:54.550Z,51.99
2022-07-29T07:36:22.899Z,50.86
2022-07-29T07:38:50.773Z,47.70
2022-07-29T07:41:18.097Z,46.81
2022-07-29T07:43:45.833Z,47.33
2022-07-29T07:46:13.544Z,48.06
2022-07-29T07:48:41.786Z,47.80
2022-07-29T07:51:09.907Z,45.37
2022-07-29T07:53:37.548Z,43.97
2022-07-29T07:56:11.025Z,45.55
2022-07-29T07:58:40.210Z,45.17
2022-07-29T08:01:08.388Z,44.69
2022-07-29T08:03:36.027Z,43.85
2022-07-29T08:06:05.109Z,45.29
2022-07-29T08:08:32.670Z,44.81
2022-07-29T08:11:02.261Z,44.37
2022-07-29T08:13:33.786Z,44.93
2022-07-29T08:16:12.862Z,44.08
2022-07-29T08:18:42.302Z,42.79
2022-07-29T08:21:10.446Z,41.75
2022-07-29T08:23:49.642Z,41.00
2022-07-29T08:26:23.655Z,39.94
2022-07-29T08:28:52.185Z,38.72
2022-07-29T08:31:19.794Z,37.53
2022-07-29T08:33:47.133Z,36.45
2022-07-29T08:36:15.402Z,36.58
2022-07-29T08:38:42.965Z,36.29
2022-07-29T08:41:10.780Z,35.38
2022-07-29T08:43:42.181Z,35.27
2022-07-29T08:46:09.869Z,34.62
2022-07-29T08:48:37.851Z,34.68
2022-07-29T08:51:09.225Z,33.82
2022-07-29T08:53:39.317Z,32.82
2022-07-29T08:56:07.218Z,33.13
2022-07-29T08:58:36.827Z,32.43
2022-07-29T09:01:06.880Z,32.27
2022-07-29T09:03:38.368Z,32.01
2022-07-29T09:06:06.598Z,31.42
2022-07-29T09:08:34.816Z,31.53
2022-07-29T09:11:03.845Z,31.64
2022-07-29T09:13:31.646Z,31.58
2022-07-29T09:15:59.516Z,31.30
2022-07-29T09:18:39.008Z,30.83
2022-07-29T09:21:31.533Z,30.60
2022-07-29T09:24:03.634Z,30.27
2022-07-29T09:26:33.168Z,29.69
2022-07-29T09:29:01.001Z,30.21
2022-07-29T09:31:36.985Z,30.50
2022-07-29T09:34:05.694Z,30.83
2022-07-29T09:36:40.543Z,31.16
2022-07-29T09:39:08.525Z,30.58
2022-07-29T09:41:54.150Z,30.64
2022-07-29T09:44:23.465Z,31.17
2022-07-29T09:47:09.098Z,30.40
2022-07-29T09:49:52.349Z,30.10
2022-07-29T09:52:20.968Z,30.10
2022-07-29T09:54:48.718Z,29.83
2022-07-29T09:57:31.189Z,29.26
2022-07-29T10:00:06.981Z,29.73
2022-07-29T10:02:44.539Z,29.46
2022-07-29T10:05:36.561Z,28.66
2022-07-29T10:08:04.945Z,28.78
2022-07-29T10:10:37.923Z,28.67
2022-07-29T10:13:15.350Z,28.49
2022-07-29T10:15:46.958Z,28.14
2022-07-29T10:18:18.702Z,27.81
2022-07-29T10:20:46.428Z,27.52
2022-07-29T10:23:13.828Z,27.42
2022-07-29T10:25:45.893Z,27.63
2022-07-29T10:28:16.443Z,27.37
2022-07-29T10:30:47.117Z,28.02
2022-07-29T10:33:17.712Z,27.85
2022-07-29T10:36:07.133Z,27.62
2022-07-29T10:39:22.336Z,27.48
2022-07-29T10:42:34.203Z,27.56
2022-07-29T10:45:04.608Z,26.46
2022-07-29T10:47:35.215Z,27.60
2022-07-29T10:50:05.884Z,27.75
2022-07-29T10:52:51.614Z,27.87
2022-07-29T10:55:49.575Z,27.81
2022-07-29T10:58:20.377Z,27.60
2022-07-29T11:00:50.884Z,27.73
2022-07-29T11:03:50.454Z,28.11
2022-07-29T11:06:26.802Z,28.25
2022-07-29T11:09:27.359Z,28.57
2022-07-29T11:12:25.558Z,28.89
2022-07-29T11:15:00.546Z,28.45
2022-07-29T11:17:47.208Z,28.25
2022-07-29T11:20:41.736Z,28.84
2022-07-29T11:23:33.395Z,28.86
2022-07-29T11:26:23.602Z,28.76
2022-07-29T11:29:00.691Z,28.89
2022-07-29T11:31:43.401Z,28.27
2022-07-29T11:34:31.994Z,28.37
2022-07-29T11:37:08.872Z,28.52
2022-07-29T11:39:54.157Z,28.47
2022-07-29T11:42:28.352Z,28.43
2022-07-29T11:45:41.477Z,28.32
2022-07-29T11:50:50.887Z,28.59
2022-07-29T11:53:18.983Z,28.40
2022-07-29T11:55:55.535Z,28.22
2022-07-29T11:58:27.441Z,27.96
2022-07-29T12:00:56.254Z,27.79
2022-07-29T12:03:33.300Z,27.79
2022-07-29T12:06:13.583Z,27.69
2022-07-29T12:08:44.123Z,26.95
2022-07-29T12:11:22.658Z,27.58
2022-07-29T12:13:54.445Z,27.17
2022-07-29T12:16:25.653Z,27.48
2022-07-29T12:19:02.384Z,27.28
2022-07-29T12:21:53.619Z,26.52
2022-07-29T12:24:26.468Z,27.32
2022-07-29T12:26:59.592Z,26.63
2022-07-29T12:29:34.831Z,27.02
2022-07-29T12:32:05.459Z,26.44
2022-07-29T12:34:33.642Z,27.00
2022-07-29T12:37:02.375Z,27.08
2022-07-29T12:39:29.933Z,27.08
2022-07-29T12:42:04.848Z,27.05
2022-07-29T12:44:45.634Z,26.67
2022-07-29T12:47:13.767Z,27.35
2022-07-29T12:49:41.507Z,27.31
2022-07-29T12:52:32.301Z,27.58
2022-07-29T12:55:00.149Z,27.77
2022-07-29T12:57:28.766Z,27.72
2022-07-29T13:00:09.189Z,27.59
2022-07-29T13:02:37.531Z,27.41
2022-07-29T13:05:06.402Z,27.33
2022-07-29T13:07:53.966Z,26.48
2022-07-29T13:10:24.409Z,27.26
2022-07-29T13:13:07.063Z,27.22
2022-07-29T13:15:35.092Z,27.25
2022-07-29T13:18:02.686Z,26.87
2022-07-29T13:20:31.676Z,27.38
2022-07-29T13:23:01.381Z,27.42
2022-07-29T13:25:31.271Z,27.47
2022-07-29T13:28:00.949Z,27.45
2022-07-29T13:30:28.565Z,27.42
2022-07-29T13:32:56.287Z,26.64
2022-07-29T13:35:24.019Z,26.38
2022-07-29T13:37:52.127Z,26.82
2022-07-29T13:40:19.889Z,26.64
2022-07-29T13:42:47.771Z,25.95
2022-07-29T13:45:15.772Z,26.55
2022-07-29T13:47:47.674Z,26.36
2022-07-29T13:50:17.600Z,26.25
2022-07-29T13:52:45.236Z,26.62
2022-07-29T13:55:12.830Z,26.65
2022-07-29T13:57:41.580Z,26.78
2022-07-29T14:00:10.414Z,26.93
2022-07-29T14:02:39.489Z,27.13
2022-07-29T14:05:08.828Z,26.16
2022-07-29T14:07:38.422Z,27.43
2022-07-29T14:10:08.394Z,27.12
2022-07-29T14:12:36.346Z,27.37
2022-07-29T14:15:04.140Z,27.41
2022-07-29T14:17:31.451Z,27.31
2022-07-29T14:19:59.527Z,27.25
2022-07-29T14:22:27.128Z,27.15
2022-07-29T14:24:54.652Z,26.93
2022-07-29T14:27:38.061Z,26.69
2022-07-29T14:30:07.490Z,26.61
2022-07-29T14:32:35.395Z,26.11
2022-07-29T14:35:02.902Z,26.46
2022-07-29T14:37:39.965Z,26.43
2022-07-29T14:40:10.032Z,26.31
2022-07-29T14:42:38.797Z,26.28
2022-07-29T14:45:08.119Z,26.30
2022-07-29T14:47:36.705Z,26.34
2022-07-29T14:50:06.077Z,26.52
2022-07-29T14:52:33.502Z,26.53
2022-07-29T14:55:01.440Z,26.51
2022-07-29T14:57:30.337Z,26.46
2022-07-29T14:59:58.134Z,26.00
2022-07-29T15:02:45.685Z,26.13
2022-07-29T15:05:13.986Z,26.68
2022-07-29T15:07:42.013Z,26.78
2022-07-29T15:10:09.645Z,26.86
2022-07-29T15:12:38.486Z,26.65
2022-07-29T15:15:06.680Z,26.83
2022-07-29T15:17:34.399Z,26.38
2022-07-29T15:20:01.822Z,26.17
2022-07-29T15:22:31.410Z,26.37
2022-07-29T15:24:58.956Z,26.23
2022-07-29T15:27:26.634Z,25.91
2022-07-29T15:29:54.595Z,25.32
2022-07-29T15:32:22.115Z,25.32
2022-07-29T15:34:49.527Z,25.62
2022-07-29T15:37:17.123Z,25.41
2022-07-29T15:39:44.503Z,25.35
2022-07-29T15:42:11.778Z,25.28
2022-07-29T15:44:39.787Z,25.11
2022-07-29T15:47:08.009Z,24.91
2022-07-29T15:49:46.549Z,24.93
2022-07-29T15:52:25.848Z,24.98
2022-07-29T15:54:56.239Z,25.03
2022-07-29T15:57:24.822Z,25.04
2022-07-29T15:59:55.209Z,24.47
2022-07-29T16:02:22.610Z,24.91
2022-07-29T16:04:50.564Z,24.37
2022-07-29T16:07:18.466Z,24.93
2022-07-29T16:09:50.763Z,24.91
2022-07-29T16:12:21.327Z,24.53
2022-07-29T16:14:51.064Z,24.35
2022-07-29T16:17:18.948Z,25.08
2022-07-29T16:19:47.007Z,24.97
2022-07-29T16:22:14.853Z,24.86
2022-07-29T16:24:42.520Z,24.32
2022-07-29T16:27:10.173Z,24.41
2022-07-29T16:29:37.944Z,24.26
2022-07-29T16:32:06.393Z,23.89
2022-07-29T16:34:34.270Z,22.89
2022-07-29T16:37:02.197Z,23.68
2022-07-29T16:39:30.062Z,23.08
2022-07-29T16:42:00.801Z,23.43
2022-07-29T16:44:29.161Z,22.56
2022-07-29T16:46:59.326Z,23.10
2022-07-29T16:49:28.333Z,22.62
2022-07-29T16:51:56.015Z,23.02
2022-07-29T16:54:23.787Z,22.10
2022-07-29T16:56:51.656Z,22.88
2022-07-29T16:59:19.184Z,22.71
2022-07-29T17:01:46.519Z,22.72
2022-07-29T17:04:15.358Z,22.19
2022-07-29T17:06:43.262Z,22.29
2022-07-29T17:09:12.394Z,22.29
2022-07-29T17:11:54.049Z,22.14
2022-07-29T17:14:29.464Z,22.15
2022-07-29T17:17:01.582Z,21.62
2022-07-29T17:19:31.364Z,21.97
2022-07-29T17:22:10.117Z,21.79
2022-07-29T17:24:41.213Z,21.76
2022-07-29T17:27:10.471Z,21.49
2022-07-29T17:29:39.247Z,21.57
2022-07-29T17:32:08.127Z,21.48
2022-07-29T17:34:37.545Z,21.30
2022-07-29T17:37:06.656Z,20.60
2022-07-29T17:39:35.964Z,20.61
2022-07-29T17:42:05.089Z,21.01
2022-07-29T17:44:36.295Z,21.09
2022-07-29T17:47:05.283Z,21.01
2022-07-29T17:49:36.357Z,20.95
2022-07-29T17:52:05.081Z,20.77
2022-07-29T17:54:32.891Z,20.20
2022-07-29T17:57:00.770Z,19.72
2022-07-29T17:59:28.532Z,19.69
2022-07-29T18:01:56.669Z,20.24
2022-07-29T18:04:24.343Z,20.47
2022-07-29T18:06:51.836Z,20.48
2022-07-29T18:09:20.394Z,20.54
2022-07-29T18:11:48.984Z,20.35
2022-07-29T18:14:17.130Z,20.46
2022-07-29T18:16:46.641Z,20.01
2022-07-29T18:19:14.545Z,20.46
2022-07-29T18:21:51.908Z,20.37
2022-07-29T18:24:27.823Z,19.84
2022-07-29T18:26:55.561Z,20.40
2022-07-29T18:29:22.943Z,19.80
2022-07-29T18:31:51.001Z,20.38
2022-07-29T18:34:18.745Z,20.30
2022-07-29T18:36:46.566Z,19.64
2022-07-29T18:39:19.176Z,20.11
2022-07-29T18:41:52.130Z,20.08
2022-07-29T18:44:22.046Z,20.04
2022-07-29T18:46:52.442Z,19.84
2022-07-29T18:49:21.942Z,19.48
2022-07-29T18:51:50.530Z,19.63
2022-07-29T18:54:18.242Z,19.79
2022-07-29T18:56:49.226Z,19.02
2022-07-29T18:59:21.607Z,19.13
2022-07-29T19:01:49.835Z,19.56
2022-07-29T19:04:18.187Z,19.62
2022-07-29T19:06:45.862Z,19.43
2022-07-29T19:09:13.551Z,19.51
2022-07-29T19:11:41.242Z,18.16
2022-07-29T19:14:08.911Z,19.24
2022-07-29T19:16:36.605Z,18.70
2022-07-29T19:19:04.972Z,19.21
2022-07-29T19:21:32.661Z,18.98
2022-07-29T19:24:06.287Z,18.50
2022-07-29T19:26:36.827Z,19.14
2022-07-29T19:29:04.712Z,18.74
2022-07-29T19:31:32.097Z,18.59
2022-07-29T19:33:59.759Z,18.99
2022-07-29T19:36:27.899Z,19.02
2022-07-29T19:38:55.838Z,18.84
2022-07-29T19:41:24.533Z,18.31
2022-07-29T19:43:53.189Z,18.92
2022-07-29T19:46:21.983Z,18.92
2022-07-29T19:48:50.238Z,18.68
2022-07-29T19:51:18.184Z,18.83
2022-07-29T19:53:45.625Z,18.40
2022-07-29T19:56:13.253Z,18.24
2022-07-29T19:58:41.329Z,18.66
2022-07-29T20:01:10.807Z,18.69
2022-07-29T20:03:40.281Z,18.44
2022-07-29T20:06:08.769Z,18.55
2022-07-29T20:08:36.486Z,18.59
2022-07-29T20:11:03.991Z,18.38
2022-07-29T20:13:33.563Z,17.37
2022-07-29T20:16:02.378Z,18.37
2022-07-29T20:18:29.990Z,17.26
2022-07-29T20:21:00.614Z,18.09
2022-07-29T20:23:28.063Z,17.88
2022-07-29T20:26:00.802Z,18.35
2022-07-29T20:28:28.787Z,17.64
2022-07-29T20:30:56.532Z,17.70
2022-07-29T20:33:23.937Z,18.18
2022-07-29T20:35:51.603Z,17.73
2022-07-29T20:38:19.333Z,18.03
2022-07-29T20:40:46.686Z,18.20
2022-07-29T20:43:14.391Z,18.16
2022-07-29T20:45:42.540Z,18.03
2022-07-29T20:48:10.717Z,17.48
2022-07-29T20:50:38.464Z,18.03
2022-07-29T20:53:06.073Z,18.01
2022-07-29T20:55:33.900Z,17.83
2022-07-29T20:58:01.603Z,17.38
2022-07-29T21:00:29.119Z,17.86
2022-07-29T21:02:56.907Z,17.93
2022-07-29T21:05:25.046Z,16.98
2022-07-29T21:07:57.794Z,17.94
2022-07-29T21:10:26.077Z,17.89
2022-07-29T21:12:53.614Z,17.93
2022-07-29T21:15:21.953Z,17.91
2022-07-29T21:17:49.810Z,17.44
2022-07-29T21:20:19.427Z,17.68
2022-07-29T21:22:47.457Z,17.29
2022-07-29T21:25:15.702Z,17.78
2022-07-29T21:28:02.261Z,16.97
2022-07-29T21:30:30.149Z,17.76
2022-07-29T21:32:57.723Z,17.71
2022-07-29T21:35:35.663Z,17.69
2022-07-29T21:38:13.376Z,17.61
2022-07-29T21:40:40.630Z,16.92
2022-07-29T21:43:08.236Z,16.89
2022-07-29T21:45:37.738Z,16.63
2022-07-29T21:48:06.283Z,17.47
2022-07-29T21:50:34.960Z,17.38
2022-07-29T21:53:03.013Z,17.47
2022-07-29T21:55:32.458Z,17.42
2022-07-29T21:57:59.950Z,16.78
2022-07-29T22:00:29.062Z,16.53
2022-07-29T22:02:56.985Z,16.53
2022-07-29T22:05:24.324Z,16.72
2022-07-29T22:07:56.401Z,17.23
2022-07-29T22:10:29.288Z,15.96
2022-07-29T22:12:58.829Z,17.32
2022-07-29T22:15:27.596Z,16.40
2022-07-29T22:17:55.176Z,17.23
2022-07-29T22:20:23.449Z,17.07
2022-07-29T22:22:51.345Z,16.71
2022-07-29T22:25:18.693Z,17.20
2022-07-29T22:27:46.829Z,17.18
2022-07-29T22:30:14.766Z,16.99
2022-07-29T22:32:42.627Z,17.02
2022-07-29T22:35:10.692Z,17.09
2022-07-29T22:37:39.504Z,16.46
2022-07-29T22:40:07.748Z,16.89
2022-07-29T22:42:35.825Z,16.99
2022-07-29T22:45:10.454Z,16.85
2022-07-29T22:47:48.189Z,16.26
2022-07-29T22:50:16.770Z,16.82
2022-07-29T22:52:45.321Z,15.66
2022-07-29T22:55:13.233Z,16.62
2022-07-29T22:57:40.797Z,16.66
2022-07-29T23:00:09.504Z,16.73
2022-07-29T23:02:37.543Z,16.04
2022-07-29T23:05:05.492Z,16.58
2022-07-29T23:07:34.989Z,16.52
2022-07-29T23:10:03.189Z,16.58
2022-07-29T23:12:31.613Z,16.06
2022-07-29T23:14:59.605Z,15.85
2022-07-29T23:17:27.129Z,16.27
2022-07-29T23:19:54.793Z,15.61
2022-07-29T23:22:22.331Z,16.38
2022-07-29T23:24:49.950Z,16.12
2022-07-29T23:27:17.859Z,15.43
2022-07-29T23:29:45.470Z,16.33
2022-07-29T23:32:12.993Z,16.26
2022-07-29T23:34:40.643Z,16.23
2022-07-29T23:37:08.778Z,15.08
2022-07-29T23:39:36.450Z,16.10
2022-07-29T23:42:04.959Z,16.18
2022-07-29T23:44:33.013Z,15.05
2022-07-29T23:47:00.639Z,15.64
2022-07-29T23:49:28.010Z,16.08
2022-07-29T23:51:56.312Z,15.29
2022-07-29T23:54:24.203Z,15.98
2022-07-29T23:56:51.706Z,15.93
2022-07-29T23:59:19.386Z,15.80
